Aérodrome :
LOGIN :

S'inscrire | Disclaimer

   EN    FR    IT 

 










Légende :    VFR   VFR Marginal   IFR   IFR Intensif   IFR Très Intensif
Visi : 
Plafond : 
>= 8 km
>= 3000ft
5 à 8 km
1000 à 3000 ft
1500m à 5 km
500 à 1000 ft
800 à 1500m
200 à 500 ft
< 800m
< 200 ft
Symboles :   Orages  Brouillard  Fortes neiges  Fortes précipitations  Vent > 20 kt
SIGMETs :   Divers  Orages  Givrage  Turbulence  Onde Orograph.  Cendres Volcan.






- Altitude de l'aérodrome : 36 ft
- Code IATA : LTQ


LFAT - Le Touquet

DERNIER METAR :
  • 091030Z AUTO 31009KT 9999 BKN026 09/03 Q1004 NOSIG

METARs EXPIRÉS :
  • 091000Z AUTO 30009KT 270V330 9999 FEW025 09/03 Q1004 NOSIG
  • 090930Z AUTO 30010KT 260V350 9999 BKN037 BKN045 OVC054 09/03 Q1004 NOSIG
  • 090900Z AUTO 29010KT 9999 OVC032 08/03 Q1004 NOSIG
  • 090830Z AUTO 29009KT 9999 OVC030 08/02 Q1003 NOSIG
  • 090800Z AUTO 29010KT 9999 OVC030 08/02 Q1003 NOSIG

TAF TAF LFAT
Valide du 09 à 09h jusqu'au 09 à 18h UTC


090800Z 0909/0918 30013KT 9999 BKN030
BECMG 0914/0916 23010KT
PROB30
TEMPO 0916/0918 23015G25KT 4000 SHRA BKN012
ATIS : +33 3 21 06 62 84



MET'MAP, la Météo Aéronautique d'un coup d'oeil ! - Copyright ORBIFLY Décembre 2007 - Disclaimer

ORBIFLY MET'MAP TEAM :

Programmation & Développement : Alexandra Zaïnal
Sur une idée originale de : Baudouin d'Aumeries
Assistance à la programmation : Marc-Olivier Méhu
Soutien technique & logistique : Manuel Goepfert

Contact : metmap@orbifly.com




SOURCES & CREDITS :

   NOAA